Time;durP1;ratioP1;P1;durP2;ratioP2;P2;SDS_P1;SDS_P2;PMS_P1;PMS_P2;Temp;Humidity;BMP_temperature;BMP_pressure;BME280_temperature;BME280_humidity;BME280_pressure;Samples;Min_cycle;Max_cycle;Signal;HPM_P1;HPM_P2
2021/09/14 00:01:05;;;;;;;8.38;5.32;;;11.00;99.90;;;;;;5038231;28;20060;-64
2021/09/14 00:03:31;;;;;;;10.02;5.97;;;10.90;99.90;;;;;;5043061;28;20076;-64
2021/09/14 00:05:58;;;;;;;11.32;5.50;;;10.90;99.90;;;;;;5042143;28;20057;-64
2021/09/14 00:08:24;;;;;;;14.93;5.53;;;10.90;99.90;;;;;;5034907;28;20056;-64
2021/09/14 00:10:50;;;;;;;10.27;5.72;;;10.80;99.90;;;;;;5040649;28;20043;-64
2021/09/14 00:13:16;;;;;;;14.43;6.13;;;10.70;99.90;;;;;;5050428;28;20068;-64
2021/09/14 00:15:42;;;;;;;12.00;5.30;;;10.70;99.90;;;;;;5040480;28;20059;-64
2021/09/14 00:18:07;;;;;;;10.48;6.03;;;10.70;99.90;;;;;;5086044;28;20492;-64
2021/09/14 00:20:33;;;;;;;10.38;6.25;;;10.60;99.90;;;;;;5081417;28;20073;-64
2021/09/14 00:22:59;;;;;;;12.48;5.85;;;10.70;99.90;;;;;;5038289;28;20092;-64
2021/09/14 00:25:25;;;;;;;9.13;6.15;;;10.70;99.90;;;;;;5054113;28;20056;-64
2021/09/14 00:27:50;;;;;;;14.30;5.70;;;10.60;99.90;;;;;;5042659;28;20075;-64
2021/09/14 00:30:16;;;;;;;9.38;5.60;;;10.60;99.90;;;;;;5041328;28;20052;-64
2021/09/14 00:32:42;;;;;;;7.32;5.18;;;10.60;99.90;;;;;;5049275;28;20041;-64
2021/09/14 00:35:08;;;;;;;12.65;6.43;;;10.60;99.90;;;;;;5046064;28;20049;-64
2021/09/14 00:37:33;;;;;;;7.38;5.53;;;10.60;99.90;;;;;;5033695;28;20069;-64
2021/09/14 00:39:59;;;;;;;11.27;6.53;;;10.60;99.90;;;;;;5043965;28;20057;-64
2021/09/14 00:42:25;;;;;;;7.43;6.07;;;10.60;99.90;;;;;;5058362;28;20056;-64
2021/09/14 00:44:50;;;;;;;12.32;6.35;;;10.50;99.90;;;;;;5047637;28;20417;-64
2021/09/14 00:47:16;;;;;;;10.70;6.00;;;10.50;99.90;;;;;;5056057;28;20056;-64
2021/09/14 00:49:42;;;;;;;13.13;6.20;;;10.40;99.90;;;;;;5056047;28;20088;-64
2021/09/14 00:52:08;;;;;;;12.48;6.97;;;10.40;99.90;;;;;;5046389;28;20538;-63
2021/09/14 00:54:37;;;;;;;9.80;6.40;;;10.50;99.90;;;;;;5049165;28;20050;-63
2021/09/14 00:57:04;;;;;;;12.20;5.93;;;10.50;99.90;;;;;;5045040;28;20509;-63
2021/09/14 00:59:30;;;;;;;12.40;7.25;;;10.50;99.90;;;;;;5052240;28;20647;-63
2021/09/14 01:01:56;;;;;;;14.20;6.68;;;10.50;99.90;;;;;;5050139;28;20045;-63
2021/09/14 01:04:22;;;;;;;14.60;7.45;;;10.50;99.90;;;;;;5059470;28;20080;-63
2021/09/14 01:06:48;;;;;;;16.05;7.63;;;10.70;99.90;;;;;;5048284;28;20091;-63
2021/09/14 01:09:15;;;;;;;12.30;7.18;;;10.70;99.90;;;;;;5057724;28;20042;-63
2021/09/14 01:11:42;;;;;;;12.70;6.53;;;10.70;99.90;;;;;;5048918;28;20037;-63
2021/09/14 01:14:09;;;;;;;14.38;6.93;;;10.60;99.90;;;;;;5055632;28;20053;-63
2021/09/14 01:16:37;;;;;;;11.55;7.20;;;10.50;99.90;;;;;;5054114;28;21678;-63
2021/09/14 01:19:05;;;;;;;14.73;8.23;;;10.80;99.90;;;;;;5049924;28;20100;-64
2021/09/14 01:21:32;;;;;;;18.50;7.20;;;10.80;99.90;;;;;;5050590;28;20060;-63
2021/09/14 01:23:59;;;;;;;9.38;6.53;;;10.80;99.90;;;;;;5063154;28;20041;-63
2021/09/14 01:26:26;;;;;;;8.13;6.25;;;10.90;99.90;;;;;;5055119;28;20056;-64
2021/09/14 01:28:52;;;;;;;11.10;6.45;;;10.80;99.90;;;;;;5059196;28;20488;-63
2021/09/14 01:31:19;;;;;;;10.45;6.63;;;10.80;99.90;;;;;;5049849;28;20072;-63
2021/09/14 01:33:52;;;;;;;9.35;6.00;;;10.70;99.90;;;;;;5058790;28;20037;-63
2021/09/14 01:36:19;;;;;;;11.82;6.35;;;10.60;99.90;;;;;;5051002;28;20041;-63
2021/09/14 01:38:45;;;;;;;10.43;6.47;;;10.60;99.90;;;;;;5058989;28;20095;-63
2021/09/14 01:41:11;;;;;;;8.85;6.82;;;10.50;99.90;;;;;;5082867;28;20057;-63
2021/09/14 01:43:39;;;;;;;13.15;6.80;;;10.50;99.90;;;;;;5060758;28;20045;-63
2021/09/14 01:46:06;;;;;;;16.27;6.97;;;10.40;99.90;;;;;;5053096;28;20048;-63
2021/09/14 01:48:31;;;;;;;11.32;6.45;;;10.50;99.90;;;;;;5060114;28;20045;-63
2021/09/14 01:50:57;;;;;;;17.38;7.35;;;10.40;99.90;;;;;;5046687;28;20037;-63
2021/09/14 01:53:25;;;;;;;10.93;6.93;;;10.40;99.90;;;;;;5052200;28;20049;-63
2021/09/14 01:55:52;;;;;;;11.40;6.95;;;10.30;99.90;;;;;;5050187;28;20042;-63
2021/09/14 01:58:18;;;;;;;11.45;6.32;;;10.30;99.90;;;;;;5052444;28;20049;-63
2021/09/14 02:01:52;;;;;;;11.75;6.15;;;10.30;99.90;;;;;;5036276;28;20041;-63
2021/09/14 02:03:54;;;;;;;15.45;6.95;;;10.30;99.90;;;;;;5028096;28;20490;-63
2021/09/14 02:06:44;;;;;;;14.50;6.53;;;10.40;99.90;;;;;;5038688;28;20056;-63
2021/09/14 02:58:38;;;;;;;14.30;7.60;;;10.80;99.90;;;;;;5051177;28;20133;-63
2021/09/14 03:01:05;;;;;;;14.77;6.88;;;10.90;99.90;;;;;;5045600;28;20050;-63
2021/09/14 03:03:30;;;;;;;10.80;6.57;;;11.00;99.90;;;;;;5057169;28;20072;-63
2021/09/14 03:05:56;;;;;;;10.32;6.57;;;11.10;99.90;;;;;;5039801;28;20072;-63
2021/09/14 03:08:22;;;;;;;9.70;6.13;;;11.10;99.90;;;;;;5083729;28;20037;-63
2021/09/14 03:10:47;;;;;;;12.50;6.78;;;11.10;99.90;;;;;;5040114;28;20124;-63
2021/09/14 03:13:13;;;;;;;9.95;6.65;;;11.20;99.90;;;;;;5058566;28;20041;-63
2021/09/14 03:15:39;;;;;;;13.30;6.75;;;11.30;99.90;;;;;;5045100;28;20041;-63
2021/09/14 03:18:04;;;;;;;15.23;7.22;;;11.40;99.90;;;;;;5055189;28;20416;-63
2021/09/14 03:20:30;;;;;;;10.32;6.55;;;11.40;99.90;;;;;;5059361;28;20384;-63
2021/09/14 03:22:56;;;;;;;15.35;6.95;;;11.40;99.90;;;;;;5049901;28;20112;-63
2021/09/14 03:25:22;;;;;;;13.45;6.53;;;11.40;99.90;;;;;;5061759;28;20068;-63
2021/09/14 03:27:47;;;;;;;13.07;5.63;;;11.50;99.90;;;;;;5046619;28;20041;-63
2021/09/14 03:30:13;;;;;;;11.48;7.28;;;11.60;99.90;;;;;;5060551;28;20092;-63
2021/09/14 03:32:39;;;;;;;12.32;6.43;;;11.60;99.90;;;;;;5059692;28;20245;-63
2021/09/14 03:35:06;;;;;;;13.75;6.82;;;11.80;99.90;;;;;;5054747;28;20044;-63
2021/09/14 03:37:31;;;;;;;8.68;6.22;;;11.70;99.90;;;;;;5052823;28;20463;-63
2021/09/14 03:39:57;;;;;;;11.25;6.53;;;11.80;99.90;;;;;;5058804;28;20071;-63
2021/09/14 03:42:23;;;;;;;10.77;6.45;;;11.80;99.90;;;;;;5070614;28;20123;-63
2021/09/14 03:44:49;;;;;;;13.40;5.85;;;11.80;99.90;;;;;;5054123;28;20053;-63
2021/09/14 03:47:16;;;;;;;10.57;7.05;;;11.80;99.90;;;;;;5045251;28;20042;-63
2021/09/14 03:49:42;;;;;;;11.25;6.82;;;11.80;99.90;;;;;;5053166;28;20049;-64
2021/09/14 03:52:08;;;;;;;13.85;6.45;;;11.90;99.90;;;;;;5042154;28;20038;-63
2021/09/14 03:54:33;;;;;;;11.43;6.35;;;11.90;99.90;;;;;;5055130;28;20535;-63
2021/09/14 03:56:59;;;;;;;19.30;6.75;;;11.90;99.90;;;;;;5053849;28;20050;-63
2021/09/14 03:59:25;;;;;;;14.98;6.85;;;12.00;99.90;;;;;;5052311;28;20124;-63
2021/09/14 04:01:57;;;;;;;11.45;6.65;;;12.00;99.90;;;;;;5043275;28;20108;-63
2021/09/14 04:09:17;;;;;;;17.00;6.13;;;12.10;99.90;;;;;;5050386;28;20052;-63
2021/09/14 04:11:43;;;;;;;14.50;6.60;;;12.20;99.90;;;;;;5054797;28;20099;-63
2021/09/14 04:14:09;;;;;;;10.40;6.15;;;12.20;99.90;;;;;;5035439;28;20050;-63
2021/09/14 04:16:35;;;;;;;11.27;6.38;;;12.20;99.90;;;;;;5041126;28;20591;-63
2021/09/14 04:19:00;;;;;;;11.30;6.53;;;12.30;99.90;;;;;;5038775;28;20083;-63
2021/09/14 04:21:26;;;;;;;10.50;6.47;;;12.30;99.90;;;;;;5040790;28;20052;-63
2021/09/14 04:23:52;;;;;;;16.88;7.28;;;12.30;99.90;;;;;;5036234;28;20478;-63
2021/09/14 04:26:17;;;;;;;9.63;6.40;;;12.30;99.90;;;;;;5058726;28;20067;-63
2021/09/14 04:28:43;;;;;;;10.63;6.30;;;12.30;99.90;;;;;;5038829;28;20045;-63
2021/09/14 04:31:09;;;;;;;13.63;6.63;;;12.30;99.90;;;;;;5042500;28;20049;-63
2021/09/14 04:33:35;;;;;;;11.55;5.63;;;12.30;99.90;;;;;;5040765;28;20046;-63
2021/09/14 04:36:01;;;;;;;11.98;5.65;;;12.30;99.90;;;;;;5087591;28;20053;-63
2021/09/14 04:38:26;;;;;;;10.18;6.50;;;12.20;99.90;;;;;;5055120;28;20050;-63
2021/09/14 04:40:52;;;;;;;11.38;6.32;;;12.20;99.90;;;;;;5053487;28;20107;-63
2021/09/14 04:43:18;;;;;;;11.02;6.45;;;12.20;99.90;;;;;;5056152;28;20045;-63
2021/09/14 04:45:44;;;;;;;18.40;6.88;;;12.30;99.90;;;;;;5075883;28;20056;-63
2021/09/14 04:48:10;;;;;;;12.75;6.57;;;12.30;99.90;;;;;;5052979;28;20052;-63
2021/09/14 04:50:37;;;;;;;10.95;6.38;;;12.20;99.90;;;;;;5055839;28;20045;-63
2021/09/14 04:53:03;;;;;;;12.02;6.25;;;12.30;99.90;;;;;;5057437;28;20045;-63
2021/09/14 04:55:29;;;;;;;13.40;6.03;;;12.30;99.90;;;;;;5053604;28;20054;-63
2021/09/14 04:57:55;;;;;;;11.07;6.35;;;12.30;99.90;;;;;;5057937;28;20044;-63
2021/09/14 05:00:21;;;;;;;11.25;5.82;;;12.30;99.90;;;;;;5055393;28;20083;-63
2021/09/14 05:02:46;;;;;;;9.98;5.82;;;12.20;99.90;;;;;;5057597;28;20056;-63
2021/09/14 05:05:12;;;;;;;12.73;6.07;;;12.30;99.90;;;;;;5056901;28;20044;-63
2021/09/14 05:07:38;;;;;;;15.10;6.38;;;12.10;99.90;;;;;;5050573;28;20041;-63
2021/09/14 05:10:04;;;;;;;14.13;6.38;;;12.10;99.90;;;;;;5058589;28;20038;-63
2021/09/14 05:12:30;;;;;;;18.17;6.32;;;12.10;99.90;;;;;;5049218;28;20072;-63
2021/09/14 05:14:55;;;;;;;10.73;6.32;;;12.00;99.90;;;;;;5037756;28;20049;-63
2021/09/14 05:17:21;;;;;;;14.10;6.50;;;11.90;99.90;;;;;;5060721;28;20108;-62
2021/09/14 05:19:48;;;;;;;9.90;6.60;;;11.80;99.90;;;;;;5051876;28;20476;-63
2021/09/14 05:22:18;;;;;;;14.65;6.40;;;11.80;99.90;;;;;;5035859;28;20045;-64
2021/09/14 05:24:44;;;;;;;17.17;6.28;;;11.80;99.90;;;;;;5051160;28;20061;-62
2021/09/14 05:27:09;;;;;;;14.18;6.68;;;11.70;99.90;;;;;;5035386;28;20452;-63
2021/09/14 05:29:35;;;;;;;13.63;6.32;;;11.80;99.90;;;;;;5043303;28;20056;-64
2021/09/14 05:32:01;;;;;;;13.15;6.50;;;11.80;99.90;;;;;;5049807;28;20153;-63
2021/09/14 05:34:27;;;;;;;17.08;7.53;;;11.80;99.90;;;;;;5051454;28;20087;-63
2021/09/14 05:36:53;;;;;;;12.60;7.32;;;11.80;99.90;;;;;;5062737;28;20037;-63
2021/09/14 05:39:20;;;;;;;15.32;6.63;;;11.80;99.90;;;;;;5047379;28;20123;-64
2021/09/14 05:41:46;;;;;;;14.52;7.18;;;11.90;99.90;;;;;;5035227;28;20049;-64
2021/09/14 05:44:11;;;;;;;10.95;7.13;;;11.90;99.90;;;;;;5071234;28;20149;-63
2021/09/14 05:46:37;;;;;;;14.35;7.32;;;11.80;99.90;;;;;;5025338;28;20060;-63
2021/09/14 05:49:04;;;;;;;7.75;6.30;;;11.90;99.90;;;;;;5033963;28;20046;-63
2021/09/14 05:51:30;;;;;;;17.00;7.63;;;11.90;99.90;;;;;;5045932;28;20048;-63
2021/09/14 05:53:55;;;;;;;14.75;6.85;;;12.00;99.90;;;;;;5051692;28;20030;-63
2021/09/14 05:56:21;;;;;;;13.40;7.25;;;12.10;99.90;;;;;;5053416;28;20041;-63
2021/09/14 05:58:47;;;;;;;19.02;7.95;;;12.10;99.90;;;;;;5041244;28;20462;-63
2021/09/14 06:01:13;;;;;;;13.35;7.28;;;12.10;99.90;;;;;;5042684;28;20054;-63
2021/09/14 06:03:39;;;;;;;13.32;7.13;;;12.20;99.90;;;;;;5046322;28;20056;-63
2021/09/14 06:06:07;;;;;;;13.63;7.22;;;12.30;99.90;;;;;;5044653;28;20049;-64
2021/09/14 06:08:33;;;;;;;11.00;7.03;;;12.40;99.90;;;;;;5039471;28;20400;-63
2021/09/14 06:10:58;;;;;;;11.65;6.78;;;12.40;99.90;;;;;;5039655;28;20045;-63
2021/09/14 06:13:24;;;;;;;10.75;6.38;;;12.50;99.90;;;;;;5041361;28;20053;-63
2021/09/14 06:15:50;;;;;;;15.77;6.50;;;12.60;99.90;;;;;;5074997;28;20084;-63
2021/09/14 06:18:15;;;;;;;10.73;6.15;;;12.70;99.90;;;;;;5037734;28;20045;-63
2021/09/14 06:20:42;;;;;;;13.60;6.68;;;12.80;99.90;;;;;;5041253;28;20075;-64
2021/09/14 06:23:07;;;;;;;14.70;6.63;;;12.90;99.90;;;;;;5041816;28;20145;-63
2021/09/14 06:25:33;;;;;;;13.23;6.55;;;12.90;99.90;;;;;;5037363;28;20068;-67
2021/09/14 06:27:59;;;;;;;13.95;6.75;;;13.10;99.90;;;;;;5041994;28;20539;-63
2021/09/14 06:30:24;;;;;;;13.50;6.18;;;13.10;99.90;;;;;;5041203;28;20049;-62
2021/09/14 06:32:50;;;;;;;11.10;6.05;;;13.20;99.90;;;;;;5075152;28;20045;-62
2021/09/14 06:35:16;;;;;;;7.60;5.28;;;13.30;99.90;;;;;;5034179;28;20474;-62
2021/09/14 06:37:42;;;;;;;11.15;5.53;;;13.40;99.90;;;;;;5038994;28;20037;-62
2021/09/14 06:40:08;;;;;;;14.95;6.22;;;13.50;99.90;;;;;;5051222;28;20053;-63
2021/09/14 06:42:33;;;;;;;20.40;5.93;;;13.60;99.90;;;;;;5041942;28;20060;-63
2021/09/14 06:44:59;;;;;;;16.23;5.70;;;13.70;99.90;;;;;;5042090;28;20486;-62
2021/09/14 06:47:26;;;;;;;10.13;4.75;;;13.80;99.90;;;;;;5036103;28;20053;-62
2021/09/14 06:49:51;;;;;;;10.25;5.35;;;13.80;99.90;;;;;;5054122;28;20083;-62
2021/09/14 06:52:17;;;;;;;11.25;5.40;;;13.90;99.90;;;;;;5040455;28;20033;-62
2021/09/14 06:54:43;;;;;;;15.27;5.53;;;13.90;99.90;;;;;;5042453;28;20072;-63
2021/09/14 06:57:08;;;;;;;19.40;5.65;;;14.00;99.90;;;;;;5040890;28;20068;-63
2021/09/14 06:59:34;;;;;;;6.45;3.92;;;14.10;99.90;;;;;;5040584;28;20060;-62
2021/09/14 07:02:00;;;;;;;10.70;4.55;;;14.20;99.90;;;;;;5042927;28;20045;-63
2021/09/14 07:04:26;;;;;;;9.45;4.40;;;14.20;99.90;;;;;;5037507;28;20137;-62
2021/09/14 07:06:51;;;;;;;13.85;4.18;;;14.30;99.90;;;;;;5038435;28;20551;-62
2021/09/14 07:09:18;;;;;;;9.45;4.47;;;14.30;99.90;;;;;;5046405;28;20517;-63
2021/09/14 07:11:44;;;;;;;9.93;4.38;;;14.50;99.90;;;;;;5062143;28;20045;-64
2021/09/14 07:14:11;;;;;;;8.38;4.43;;;14.60;99.90;;;;;;5033463;28;20053;-62
2021/09/14 07:16:36;;;;;;;7.93;3.70;;;14.70;99.90;;;;;;5045715;28;20041;-62
2021/09/14 07:19:02;;;;;;;7.22;3.72;;;14.70;99.90;;;;;;5043418;28;20076;-63
2021/09/14 07:21:28;;;;;;;10.60;4.00;;;14.80;99.90;;;;;;5037211;28;20037;-68
2021/09/14 07:23:54;;;;;;;8.00;3.75;;;14.90;99.90;;;;;;5041539;28;20045;-60
2021/09/14 07:26:20;;;;;;;6.97;4.22;;;15.00;99.90;;;;;;5040044;28;20041;-60
2021/09/14 07:28:46;;;;;;;11.45;4.35;;;15.10;99.90;;;;;;5041921;28;20055;-61
2021/09/14 07:31:13;;;;;;;10.25;4.07;;;15.20;99.90;;;;;;5038014;28;20667;-62
2021/09/14 07:33:39;;;;;;;8.77;3.78;;;15.40;99.90;;;;;;5035065;28;20045;-61
2021/09/14 07:36:08;;;;;;;8.32;3.92;;;15.40;99.90;;;;;;5050036;28;20040;-61
2021/09/14 07:38:39;;;;;;;8.57;4.68;;;15.60;99.90;;;;;;5039351;28;20066;-61
2021/09/14 07:41:06;;;;;;;5.95;3.80;;;15.60;99.90;;;;;;5043196;28;20061;-61
2021/09/14 07:43:32;;;;;;;9.65;3.97;;;15.70;99.90;;;;;;5040542;28;20061;-61
2021/09/14 07:45:57;;;;;;;9.90;3.95;;;15.90;99.90;;;;;;5040615;28;20084;-61
2021/09/14 07:48:23;;;;;;;6.22;3.92;;;15.70;99.90;;;;;;5044724;28;20041;-62
2021/09/14 07:50:49;;;;;;;9.18;4.38;;;15.80;99.90;;;;;;5045474;28;20045;-61
2021/09/14 07:53:15;;;;;;;8.30;4.55;;;16.00;99.90;;;;;;5044441;28;20034;-61
2021/09/14 07:55:40;;;;;;;9.98;5.85;;;16.00;99.90;;;;;;5045834;28;20045;-61
2021/09/14 07:58:06;;;;;;;9.27;5.25;;;16.10;99.90;;;;;;5044207;28;20060;-61
2021/09/14 08:00:32;;;;;;;12.00;5.45;;;16.10;99.90;;;;;;5036884;28;20073;-61
2021/09/14 08:02:59;;;;;;;9.07;3.88;;;16.20;99.90;;;;;;5044680;28;20104;-61
2021/09/14 08:05:26;;;;;;;6.70;5.07;;;16.30;99.90;;;;;;5044875;28;20042;-61
2021/09/14 08:07:52;;;;;;;10.75;5.57;;;16.30;99.90;;;;;;5048621;28;20326;-61
2021/09/14 08:10:17;;;;;;;9.13;5.75;;;16.40;99.90;;;;;;5042373;28;20284;-60
2021/09/14 08:12:43;;;;;;;9.13;5.68;;;16.70;99.90;;;;;;5041464;28;20041;-61
2021/09/14 08:15:10;;;;;;;9.88;5.13;;;16.70;99.90;;;;;;5074150;28;20464;-60
2021/09/14 08:17:35;;;;;;;11.43;6.57;;;16.90;99.90;;;;;;5046072;28;20568;-59
2021/09/14 08:20:03;;;;;;;11.68;6.95;;;17.00;99.90;;;;;;5046924;28;20069;-59
2021/09/14 08:22:29;;;;;;;8.80;5.80;;;17.20;99.90;;;;;;5037228;28;20053;-62
2021/09/14 08:24:55;;;;;;;8.55;5.25;;;17.40;99.90;;;;;;5041215;28;20037;-63
2021/09/14 08:27:21;;;;;;;11.20;6.28;;;17.60;99.90;;;;;;5045018;28;20091;-64
2021/09/14 08:29:47;;;;;;;10.40;5.53;;;17.80;99.90;;;;;;5045215;28;20072;-61
2021/09/14 08:32:14;;;;;;;13.32;6.88;;;;;;;;;;5046528;28;20034;-62
2021/09/14 08:34:40;;;;;;;9.77;7.13;;;18.20;99.90;;;;;;5041797;28;20068;-63
2021/09/14 08:37:06;;;;;;;10.88;6.80;;;16.50;99.90;;;;;;5047032;28;20063;-64
2021/09/14 08:39:31;;;;;;;11.32;6.07;;;17.50;99.90;;;;;;5042567;28;20049;-62
2021/09/14 08:41:57;;;;;;;12.43;6.53;;;17.50;99.90;;;;;;5046297;28;20045;-63
2021/09/14 08:44:23;;;;;;;12.50;6.93;;;17.50;99.90;;;;;;5045653;28;20052;-60
2021/09/14 08:46:49;;;;;;;9.68;6.70;;;17.50;99.90;;;;;;5045095;28;20049;-65
2021/09/14 08:49:15;;;;;;;11.00;6.65;;;17.70;99.90;;;;;;5045701;28;20033;-62
2021/09/14 08:51:41;;;;;;;13.63;6.80;;;17.60;99.90;;;;;;5038892;28;20460;-60
2021/09/14 08:54:07;;;;;;;10.13;6.40;;;17.70;99.90;;;;;;5049310;28;20045;-60
2021/09/14 08:56:33;;;;;;;10.25;6.35;;;17.70;99.90;;;;;;5038429;28;20057;-62
2021/09/14 08:59:01;;;;;;;9.40;6.75;;;17.80;99.90;;;;;;5038650;28;20044;-65
2021/09/14 09:01:28;;;;;;;7.30;5.60;;;18.10;99.90;;;;;;5048153;28;20052;-61
2021/09/14 09:04:02;;;;;;;9.60;6.50;;;18.00;99.90;;;;;;5049223;28;20071;-64
2021/09/14 09:06:36;;;;;;;17.40;8.32;;;18.10;99.90;;;;;;5037500;28;20037;-65
2021/09/14 09:09:15;;;;;;;7.35;5.65;;;18.00;99.90;;;;;;5046922;28;20049;-62
2021/09/14 09:11:54;;;;;;;13.13;7.65;;;18.10;99.90;;;;;;5039415;28;20042;-69
2021/09/14 09:14:41;;;;;;;11.95;7.63;;;18.30;99.90;;;;;;5041111;28;20037;-62
2021/09/14 09:17:15;;;;;;;13.23;8.23;;;18.30;99.90;;;;;;5045761;28;20049;-62
2021/09/14 09:19:53;;;;;;;11.10;8.48;;;18.60;99.90;;;;;;5040147;28;20041;-62
2021/09/14 09:22:19;;;;;;;;;;;18.70;99.90;;;;;;5044088;28;20041;-62
2021/09/14 09:24:44;;;;;;;13.93;7.68;;;18.90;99.90;;;;;;5043559;28;19928;-64
2021/09/14 09:27:15;;;;;;;11.55;9.70;;;18.70;99.90;;;;;;5042433;28;20053;-68
2021/09/14 09:29:41;;;;;;;17.80;9.68;;;18.70;99.90;;;;;;5065627;28;20049;-65
2021/09/14 09:32:07;;;;;;;13.88;9.65;;;18.90;99.90;;;;;;5039108;28;20044;-66
2021/09/14 09:34:33;;;;;;;16.92;9.93;;;19.20;99.90;;;;;;5034430;28;20130;-64
2021/09/14 09:37:08;;;;;;;16.35;9.27;;;19.00;99.90;;;;;;5040597;28;20162;-66
2021/09/14 09:39:44;;;;;;;13.63;9.55;;;19.20;99.90;;;;;;5040815;28;20037;-65
2021/09/14 09:42:11;;;;;;;11.40;8.88;;;19.20;99.90;;;;;;5042343;28;20387;-65
2021/09/14 09:44:38;;;;;;;13.95;9.43;;;19.30;99.90;;;;;;5041791;28;20049;-71
2021/09/14 09:47:04;;;;;;;13.45;9.27;;;19.20;99.90;;;;;;5057870;28;20076;-72
2021/09/14 09:49:30;;;;;;;17.75;9.43;;;19.20;99.90;;;;;;5075370;28;20049;-69
2021/09/14 09:51:59;;;;;;;17.08;8.57;;;19.30;99.90;;;;;;5042087;28;20047;-70
2021/09/14 09:54:25;;;;;;;10.95;8.45;;;19.50;99.90;;;;;;5037735;28;20049;-72
2021/09/14 09:56:51;;;;;;;11.77;8.27;;;19.70;99.90;;;;;;5074779;28;20045;-69
2021/09/14 09:59:17;;;;;;;10.50;8.25;;;20.00;99.90;;;;;;5046444;28;20042;-61
2021/09/14 10:02:10;;;;;;;12.80;6.72;;;20.00;99.90;;;;;;5046658;28;20049;-61
2021/09/14 10:04:51;;;;;;;11.88;8.10;;;19.40;99.90;;;;;;5038050;28;20080;-61
2021/09/14 10:07:17;;;;;;;10.38;6.70;;;19.40;99.90;;;;;;5048410;28;20056;-61
2021/09/14 10:09:54;;;;;;;13.57;7.97;;;19.30;99.90;;;;;;5046868;28;20072;-63
2021/09/14 10:12:24;;;;;;;13.70;8.32;;;19.50;99.90;;;;;;5043118;28;20045;-62
2021/09/14 10:15:01;;;;;;;12.02;7.88;;;19.60;99.90;;;;;;5040365;28;20041;-62
2021/09/14 10:17:27;;;;;;;14.98;8.45;;;19.70;99.90;;;;;;5039926;28;20705;-62
2021/09/14 10:19:53;;;;;;;18.60;8.90;;;19.80;99.90;;;;;;5040636;28;20528;-62
2021/09/14 10:22:24;;;;;;;13.27;8.95;;;19.40;99.90;;;;;;5040892;28;20046;-62
2021/09/14 10:25:01;;;;;;;14.50;8.88;;;19.10;99.90;;;;;;5039774;28;20056;-62
2021/09/14 10:27:41;;;;;;;15.80;9.02;;;19.20;99.90;;;;;;5035964;28;20050;-63
2021/09/14 10:30:08;;;;;;;9.38;7.93;;;19.20;99.90;;;;;;5036976;28;20514;-61
2021/09/14 10:32:38;;;;;;;;;;;19.20;99.90;;;;;;5036805;28;20050;-68
2021/09/14 10:35:04;;;;;;;11.82;7.78;;;19.30;99.90;;;;;;5041603;28;19948;-62
2021/09/14 10:37:31;;;;;;;14.88;8.88;;;19.30;99.90;;;;;;5043967;28;20119;-64
2021/09/14 10:40:08;;;;;;;12.40;8.40;;;19.30;99.90;;;;;;5040380;28;20044;-70
2021/09/14 10:42:41;;;;;;;11.80;8.65;;;19.40;99.90;;;;;;5040061;28;20131;-69
2021/09/14 10:45:16;;;;;;;10.98;8.52;;;19.60;99.90;;;;;;5070230;28;20145;-73
2021/09/14 10:47:46;;;;;;;11.85;8.60;;;19.90;99.90;;;;;;5054893;28;20038;-69
2021/09/14 10:50:26;;;;;;;13.60;9.48;;;20.00;99.90;;;;;;5045028;28;20041;-70
2021/09/14 10:53:00;;;;;;;13.63;9.68;;;19.80;99.90;;;;;;5041399;28;20049;-71
2021/09/14 10:55:26;;;;;;;11.48;9.02;;;20.00;99.90;;;;;;5041876;28;20047;-66
2021/09/14 10:57:58;;;;;;;13.70;9.05;;;20.20;99.90;;;;;;5038987;28;20061;-66
2021/09/14 11:00:31;;;;;;;10.73;7.70;;;20.50;99.90;;;;;;5048933;28;20148;-66
2021/09/14 11:02:58;;;;;;;13.07;9.30;;;20.20;99.90;;;;;;5046949;28;20401;-68
2021/09/14 11:05:32;;;;;;;12.05;8.43;;;20.20;99.90;;;;;;5035235;28;20123;-67
2021/09/14 11:07:59;;;;;;;11.63;8.75;;;20.40;99.90;;;;;;5039096;28;20053;-67
2021/09/14 11:10:32;;;;;;;13.95;7.90;;;20.70;99.90;;;;;;5045420;28;20052;-68
2021/09/14 11:12:58;;;;;;;13.55;9.15;;;20.50;99.90;;;;;;5043017;28;20037;-68
2021/09/14 11:15:25;;;;;;;14.50;9.10;;;21.00;99.90;;;;;;5035111;28;20068;-68
2021/09/14 11:17:54;;;;;;;11.55;7.50;;;21.20;99.90;;;;;;5039206;28;20065;-69
2021/09/14 11:20:21;;;;;;;13.45;8.30;;;21.20;99.90;;;;;;5075304;28;20461;-66
2021/09/14 11:22:50;;;;;;;;;;;21.30;99.90;;;;;;5042642;28;20038;-67
2021/09/14 11:25:18;;;;;;;13.13;7.57;;;21.40;99.90;;;;;;5045778;28;20461;-67
2021/09/14 11:27:56;;;;;;;13.48;7.70;;;21.80;99.90;;;;;;5078298;28;20136;-67
2021/09/14 11:30:22;;;;;;;8.88;5.93;;;21.60;99.90;;;;;;5043840;28;20065;-68
2021/09/14 11:32:48;;;;;;;10.10;6.32;;;22.00;99.90;;;;;;5047764;28;20033;-66
2021/09/14 11:35:15;;;;;;;9.77;6.95;;;22.00;99.90;;;;;;5048108;28;20068;-66
2021/09/14 11:37:41;;;;;;;11.07;6.95;;;22.50;99.90;;;;;;5042785;28;20046;-67
2021/09/14 11:40:19;;;;;;;8.73;6.53;;;23.10;99.90;;;;;;5039953;28;20049;-65
2021/09/14 11:42:56;;;;;;;8.60;6.82;;;23.10;99.90;;;;;;5039085;28;20049;-65
2021/09/14 11:45:27;;;;;;;6.03;5.40;;;23.30;99.90;;;;;;5040917;28;20041;-64
2021/09/14 11:47:54;;;;;;;7.97;5.82;;;23.20;99.90;;;;;;5037375;28;20030;-65
2021/09/14 11:50:31;;;;;;;7.93;6.28;;;23.10;99.90;;;;;;5037513;28;20184;-71
2021/09/14 11:53:18;;;;;;;7.40;6.30;;;23.60;99.90;;;;;;5036907;28;20101;-72
2021/09/14 11:55:50;;;;;;;8.27;5.80;;;23.60;99.90;;;;;;5041749;28;20566;-63
2021/09/14 11:58:31;;;;;;;9.32;6.28;;;24.00;99.90;;;;;;5035303;28;20139;-66
2021/09/14 12:01:07;;;;;;;6.97;5.07;;;24.40;99.90;;;;;;5033667;28;20037;-67
2021/09/14 12:03:45;;;;;;;8.50;5.32;;;24.70;99.90;;;;;;5039620;28;20595;-65
2021/09/14 12:06:22;;;;;;;7.60;6.28;;;25.20;99.90;;;;;;5043015;28;20060;-66
2021/09/14 12:08:48;;;;;;;8.88;5.97;;;25.20;99.90;;;;;;5043371;28;20035;-65
2021/09/14 12:11:32;;;;;;;13.83;6.43;;;24.80;99.90;;;;;;5053037;28;20102;-65
2021/09/14 12:14:05;;;;;;;8.18;5.63;;;24.40;99.90;;;;;;5036518;28;20136;-65
2021/09/14 12:16:37;;;;;;;11.43;6.50;;;24.50;99.90;;;;;;5035139;28;20056;-65
2021/09/14 12:19:04;;;;;;;9.32;5.88;;;24.30;99.90;;;;;;5039077;28;20073;-65
2021/09/14 12:21:29;;;;;;;6.72;5.95;;;23.90;99.90;;;;;;5040091;28;20471;-66
2021/09/14 12:23:57;;;;;;;7.00;6.10;;;24.00;99.90;;;;;;5047638;28;20080;-65
2021/09/14 12:26:30;;;;;;;8.45;6.00;;;24.00;99.90;;;;;;5075447;28;20049;-64
2021/09/14 12:28:58;;;;;;;10.27;6.30;;;24.10;99.90;;;;;;5070952;28;20061;-65
2021/09/14 12:31:24;;;;;;;8.57;5.65;;;25.00;99.90;;;;;;5034742;28;20038;-66
2021/09/14 12:33:50;;;;;;;7.10;5.60;;;25.10;99.90;;;;;;5036377;28;20044;-65
2021/09/14 12:36:16;;;;;;;10.65;6.32;;;25.70;99.90;;;;;;5044177;28;20044;-66
2021/09/14 12:38:42;;;;;;;18.42;6.15;;;24.50;99.90;;;;;;5048361;28;20114;-65
2021/09/14 12:41:08;;;;;;;10.95;6.07;;;25.00;99.90;;;;;;5045583;28;20050;-66
2021/09/14 12:43:34;;;;;;;8.60;5.95;;;25.40;99.90;;;;;;5045869;28;20053;-66
2021/09/14 12:46:00;;;;;;;7.57;5.83;;;25.30;99.50;;;;;;5041645;28;20207;-65
2021/09/14 12:48:26;;;;;;;6.50;5.73;;;24.40;99.90;;;;;;5051440;28;20042;-66
2021/09/14 12:50:52;;;;;;;8.38;6.28;;;24.20;99.90;;;;;;5037233;28;20045;-66
2021/09/14 12:53:18;;;;;;;7.53;4.57;;;24.40;99.90;;;;;;5042587;28;20049;-66
2021/09/14 12:55:44;;;;;;;10.73;5.23;;;24.40;99.90;;;;;;5039997;28;20301;-66
2021/09/14 12:58:09;;;;;;;9.30;5.87;;;24.60;99.90;;;;;;5062391;28;20052;-66
2021/09/14 13:00:36;;;;;;;9.27;5.97;;;25.40;99.90;;;;;;5057684;28;20046;-66
2021/09/14 13:03:02;;;;;;;7.57;5.70;;;25.20;99.50;;;;;;5044446;28;20068;-64
2021/09/14 13:05:30;;;;;;;6.47;5.18;;;25.10;99.80;;;;;;5071569;28;20056;-65
2021/09/14 13:07:56;;;;;;;9.65;5.80;;;25.30;99.90;;;;;;5051121;28;20034;-64
2021/09/14 13:10:23;;;;;;;5.57;5.05;;;26.10;99.60;;;;;;5055825;28;20076;-64
2021/09/14 13:12:51;;;;;;;8.30;6.05;;;26.40;97.10;;;;;;5045071;28;20084;-65
2021/09/14 13:18:02;;;;;;;10.13;5.95;;;25.00;98.90;;;;;;5033595;28;20053;-64
2021/09/14 13:20:28;;;;;;;8.90;6.03;;;24.30;99.90;;;;;;5042986;28;20041;-64
2021/09/14 13:22:55;;;;;;;7.43;6.63;;;23.70;99.90;;;;;;5045150;28;20065;-65
2021/09/14 13:25:22;;;;;;;8.60;7.03;;;24.00;99.90;;;;;;5044678;28;20059;-65
2021/09/14 13:27:48;;;;;;;7.97;6.70;;;24.40;99.90;;;;;;5043606;28;20532;-65
2021/09/14 13:30:14;;;;;;;6.72;6.03;;;24.60;99.90;;;;;;5047877;28;20057;-64
2021/09/14 13:32:40;;;;;;;9.88;5.63;;;25.20;99.90;;;;;;5042320;28;20416;-64
2021/09/14 13:35:06;;;;;;;9.07;6.30;;;25.10;99.40;;;;;;5047193;28;20046;-66
2021/09/14 13:37:33;;;;;;;7.75;6.32;;;25.50;99.10;;;;;;5050457;28;20046;-65
2021/09/14 13:39:59;;;;;;;7.95;6.18;;;25.30;98.40;;;;;;5043944;28;20519;-65